createdAt,value
2017-02-07T00:00:14.829Z,0
2017-02-07T00:01:25.205Z,0
2017-02-07T00:02:35.952Z,0
2017-02-07T00:03:46.297Z,0
2017-02-07T00:04:57.038Z,0
2017-02-07T00:06:07.776Z,0
2017-02-07T00:07:18.123Z,0
2017-02-07T00:08:28.317Z,0
2017-02-07T00:09:38.673Z,0
2017-02-07T00:10:48.630Z,0
2017-02-07T00:11:58.982Z,0
2017-02-07T00:13:08.940Z,0
2017-02-07T00:14:19.699Z,0
2017-02-07T00:15:30.048Z,0
2017-02-07T00:16:40.400Z,0
2017-02-07T00:17:50.749Z,0
2017-02-07T00:19:00.711Z,0
2017-02-07T00:20:11.064Z,0
2017-02-07T00:21:21.806Z,0
2017-02-07T00:22:31.762Z,0
2017-02-07T00:23:42.118Z,0
2017-02-07T00:24:52.705Z,0
2017-02-07T00:26:03.052Z,0
2017-02-07T00:27:13.787Z,0
2017-02-07T00:28:24.522Z,0
2017-02-07T00:29:34.895Z,0
2017-02-07T00:30:45.245Z,0
2017-02-07T00:31:55.206Z,0
2017-02-07T00:33:05.567Z,0
2017-02-07T00:34:16.328Z,0
2017-02-07T00:35:27.060Z,0
2017-02-07T00:36:37.023Z,0
2017-02-07T00:37:47.384Z,0
2017-02-07T00:38:57.736Z,0
2017-02-07T00:40:07.702Z,0
2017-02-07T00:41:18.468Z,0
2017-02-07T00:42:28.811Z,0
2017-02-07T00:43:39.162Z,0
2017-02-07T00:44:49.910Z,0
2017-02-07T00:45:59.469Z,0
2017-02-07T00:47:09.031Z,0
2017-02-07T00:48:19.386Z,0
2017-02-07T00:49:29.353Z,0
2017-02-07T00:50:39.704Z,0
2017-02-07T00:51:50.451Z,0
2017-02-07T00:53:01.200Z,0
2017-02-07T00:54:11.555Z,0
2017-02-07T00:55:21.902Z,0
2017-02-07T00:56:32.661Z,0
2017-02-07T00:57:42.633Z,0
2017-02-07T00:58:53.024Z,0
2017-02-07T01:00:03.368Z,0
2017-02-07T01:01:14.108Z,0
2017-02-07T01:02:24.471Z,0
2017-02-07T01:03:35.219Z,0
2017-02-07T01:04:45.985Z,0
2017-02-07T01:05:56.734Z,0
2017-02-07T01:07:07.482Z,0
2017-02-07T01:08:17.059Z,0
2017-02-07T01:09:27.408Z,0
2017-02-07T01:10:38.148Z,0
2017-02-07T01:11:48.490Z,0
2017-02-07T01:12:59.237Z,0
2017-02-07T01:14:09.193Z,0
2017-02-07T01:15:19.545Z,0
2017-02-07T01:16:30.277Z,0
2017-02-07T01:17:40.631Z,0
2017-02-07T01:18:51.385Z,0
2017-02-07T01:20:01.731Z,0
2017-02-07T01:21:12.497Z,0
2017-02-07T01:22:22.862Z,0
2017-02-07T01:23:32.817Z,0
2017-02-07T01:24:43.162Z,0
2017-02-07T01:25:53.900Z,0
2017-02-07T01:27:04.257Z,0
2017-02-07T01:28:15.005Z,0
2017-02-07T01:29:25.360Z,0
2017-02-07T01:30:35.705Z,0
2017-02-07T01:31:46.444Z,0
2017-02-07T01:32:57.190Z,0
2017-02-07T01:34:07.145Z,0
2017-02-07T01:35:17.104Z,0
2017-02-07T01:36:27.450Z,0
2017-02-07T01:37:38.192Z,0
2017-02-07T01:38:48.144Z,0
2017-02-07T01:39:58.101Z,0
2017-02-07T01:41:08.081Z,0
2017-02-07T01:42:18.441Z,0
2017-02-07T01:43:28.803Z,0
2017-02-07T01:44:39.145Z,0
2017-02-07T01:45:49.498Z,0
2017-02-07T01:47:00.248Z,0
2017-02-07T01:48:10.610Z,0
2017-02-07T01:49:21.358Z,0
2017-02-07T01:50:31.711Z,0
2017-02-07T01:51:42.497Z,0
2017-02-07T01:52:53.252Z,0
2017-02-07T01:54:03.615Z,0
2017-02-07T01:55:13.966Z,0
2017-02-07T01:56:24.328Z,0
2017-02-07T01:57:35.081Z,0
2017-02-07T01:58:45.827Z,0
2017-02-07T01:59:56.572Z,0
2017-02-07T02:01:07.303Z,0
2017-02-07T02:02:18.034Z,0
2017-02-07T02:03:28.381Z,0
2017-02-07T02:04:39.141Z,0
2017-02-07T02:05:49.492Z,0
2017-02-07T02:06:59.431Z,0
2017-02-07T02:08:10.179Z,0
2017-02-07T02:09:20.130Z,0
2017-02-07T02:10:30.875Z,0
2017-02-07T02:11:40.426Z,0
2017-02-07T02:12:51.187Z,0
2017-02-07T02:14:01.940Z,0
2017-02-07T02:15:12.685Z,0
2017-02-07T02:16:23.626Z,0
2017-02-07T02:17:33.974Z,0
2017-02-07T02:18:43.940Z,0
2017-02-07T02:19:54.302Z,0
2017-02-07T02:21:05.044Z,0
2017-02-07T02:22:15.385Z,0
2017-02-07T02:23:26.128Z,0
2017-02-07T02:24:36.479Z,0
2017-02-07T02:25:47.224Z,0
2017-02-07T02:26:57.578Z,0
2017-02-07T02:28:07.928Z,0
2017-02-07T02:29:18.670Z,0
2017-02-07T02:30:29.430Z,0
2017-02-07T02:31:39.816Z,0
2017-02-07T02:32:49.764Z,0
2017-02-07T02:34:00.503Z,0
2017-02-07T02:35:10.470Z,0
2017-02-07T02:36:21.207Z,0
2017-02-07T02:37:31.560Z,0
2017-02-07T02:38:42.299Z,0
2017-02-07T02:39:52.672Z,0
2017-02-07T02:41:03.035Z,0
2017-02-07T02:42:13.770Z,0
2017-02-07T02:43:24.116Z,0
2017-02-07T02:44:34.868Z,0
2017-02-07T02:45:45.632Z,0
2017-02-07T02:46:55.612Z,0
2017-02-07T02:48:05.956Z,0
2017-02-07T02:49:15.911Z,0
2017-02-07T02:50:26.668Z,0
2017-02-07T02:51:36.640Z,0
2017-02-07T02:52:46.978Z,0
2017-02-07T02:53:57.723Z,0
2017-02-07T02:55:08.074Z,0
2017-02-07T02:56:18.413Z,0
2017-02-07T02:57:28.753Z,0
2017-02-07T02:58:39.503Z,0
2017-02-07T02:59:49.852Z,0
2017-02-07T03:01:00.599Z,0
2017-02-07T03:33:04.675Z,0
2017-02-07T03:34:14.620Z,0
2017-02-07T03:35:25.361Z,0
2017-02-07T03:36:35.705Z,0
2017-02-07T03:37:45.656Z,0
2017-02-07T03:38:56.003Z,0
2017-02-07T03:40:06.744Z,0
2017-02-07T03:41:16.707Z,0
2017-02-07T03:42:27.448Z,0
2017-02-07T03:43:38.190Z,0
2017-02-07T03:44:48.932Z,0
2017-02-07T03:45:58.508Z,0
2017-02-07T03:47:08.464Z,0
2017-02-07T03:48:18.813Z,0
2017-02-07T03:49:29.543Z,0
2017-02-07T03:50:40.316Z,0
2017-02-07T03:51:51.062Z,0
2017-02-07T03:53:01.019Z,0
2017-02-07T03:54:11.382Z,0
2017-02-07T03:55:21.335Z,0
2017-02-07T03:56:31.297Z,0
2017-02-07T03:57:42.066Z,0
2017-02-07T03:58:52.420Z,0
2017-02-07T04:00:02.780Z,0
2017-02-07T04:01:13.525Z,0
2017-02-07T04:02:23.872Z,0
2017-02-07T04:03:34.220Z,0
2017-02-07T04:04:43.765Z,0
2017-02-07T04:05:53.717Z,0
2017-02-07T04:07:04.475Z,0
2017-02-07T04:08:14.414Z,0
2017-02-07T04:09:24.764Z,0
2017-02-07T04:10:35.504Z,0
2017-02-07T04:11:45.847Z,0
2017-02-07T04:12:56.183Z,0
2017-02-07T04:14:06.924Z,0
2017-02-07T04:15:17.669Z,0
2017-02-07T04:16:28.413Z,0
2017-02-07T04:17:39.164Z,0
2017-02-07T04:18:49.520Z,0
2017-02-07T04:19:59.869Z,0
2017-02-07T04:21:10.611Z,0
2017-02-07T04:22:20.970Z,0
2017-02-07T04:23:31.321Z,0
2017-02-07T04:24:41.656Z,0
2017-02-07T04:25:52.396Z,0
2017-02-07T04:27:03.167Z,0
2017-02-07T04:28:13.920Z,0
2017-02-07T04:29:24.270Z,0
2017-02-07T04:30:34.608Z,0
2017-02-07T04:31:44.562Z,0
2017-02-07T04:32:54.911Z,0
2017-02-07T04:34:05.648Z,0
2017-02-07T04:35:16.383Z,0
2017-02-07T04:36:27.122Z,0
2017-02-07T04:37:37.863Z,0
2017-02-07T04:38:47.812Z,0
2017-02-07T04:39:58.157Z,0
2017-02-07T04:41:08.500Z,0
2017-02-07T04:42:18.859Z,0
2017-02-07T04:43:29.598Z,0
2017-02-07T04:44:39.939Z,0
2017-02-07T04:45:50.681Z,0
2017-02-07T04:47:01.028Z,0
2017-02-07T04:48:10.985Z,0
2017-02-07T04:49:21.721Z,0
2017-02-07T04:50:32.462Z,0
2017-02-07T04:51:42.836Z,0
2017-02-07T04:52:52.780Z,0
2017-02-07T04:54:03.112Z,0
2017-02-07T04:55:13.480Z,0
2017-02-07T04:56:24.234Z,0
2017-02-07T04:57:34.198Z,0
2017-02-07T04:58:44.188Z,0
2017-02-07T04:59:54.143Z,0
2017-02-07T05:01:04.898Z,0
2017-02-07T05:02:15.657Z,0
2017-02-07T05:03:26.408Z,0
2017-02-07T05:04:36.762Z,0
2017-02-07T05:05:47.495Z,0
2017-02-07T05:06:57.852Z,0
2017-02-07T05:08:08.595Z,0
2017-02-07T05:09:18.957Z,0
2017-02-07T05:10:29.692Z,0
2017-02-07T05:11:40.438Z,0
2017-02-07T05:12:51.184Z,0
2017-02-07T05:14:01.935Z,0
2017-02-07T05:15:12.291Z,0
2017-02-07T05:16:22.235Z,0
2017-02-07T05:17:32.192Z,0
2017-02-07T05:18:42.931Z,0
2017-02-07T05:19:53.295Z,0
2017-02-07T05:21:03.647Z,0
2017-02-07T05:22:13.998Z,0
2017-02-07T05:23:24.338Z,0
2017-02-07T05:24:34.688Z,0
2017-02-07T05:25:45.414Z,0
2017-02-07T05:26:55.774Z,0
2017-02-07T05:28:06.516Z,0
2017-02-07T05:29:16.859Z,0
2017-02-07T05:30:27.250Z,0
2017-02-07T05:31:37.610Z,0
2017-02-07T05:32:47.564Z,0
2017-02-07T05:33:57.910Z,0
2017-02-07T05:35:08.272Z,0
2017-02-07T05:36:18.230Z,0
2017-02-07T05:37:28.968Z,0
2017-02-07T05:38:39.313Z,0
2017-02-07T05:39:49.654Z,0
2017-02-07T05:41:00.402Z,0
2017-02-07T05:42:11.130Z,0
2017-02-07T05:43:21.884Z,0
2017-02-07T05:44:31.841Z,0
2017-02-07T05:45:42.590Z,4
2017-02-07T05:46:53.327Z,4
2017-02-07T05:48:03.678Z,4
2017-02-07T05:49:14.038Z,4
2017-02-07T05:50:24.381Z,0
2017-02-07T05:51:34.726Z,4
2017-02-07T05:52:45.485Z,4
2017-02-07T05:53:55.835Z,4
2017-02-07T05:55:06.180Z,4
2017-02-07T05:56:16.542Z,4
2017-02-07T05:57:27.294Z,8
2017-02-07T05:58:37.245Z,8
2017-02-07T05:59:48.200Z,8
2017-02-07T06:00:58.554Z,12
2017-02-07T06:02:09.303Z,16
2017-02-07T06:03:20.053Z,20
2017-02-07T06:04:30.006Z,20
2017-02-07T06:05:40.762Z,24
2017-02-07T06:06:51.502Z,28
2017-02-07T06:08:02.245Z,32
2017-02-07T06:09:12.200Z,36
2017-02-07T06:10:22.938Z,40
2017-02-07T06:11:33.670Z,44
2017-02-07T06:12:43.642Z,48
2017-02-07T06:13:54.393Z,60
2017-02-07T06:15:03.955Z,64
2017-02-07T06:16:14.711Z,72
2017-02-07T06:17:25.449Z,80
2017-02-07T06:18:36.189Z,88
2017-02-07T06:19:46.528Z,96
2017-02-07T06:20:56.899Z,104
2017-02-07T06:22:07.645Z,112
2017-02-07T06:23:18.407Z,120
2017-02-07T06:24:29.144Z,132
2017-02-07T06:25:39.512Z,136
2017-02-07T06:26:50.259Z,144
2017-02-07T06:28:00.650Z,152
2017-02-07T06:29:11.013Z,160
2017-02-07T06:30:20.587Z,172
2017-02-07T06:31:31.325Z,184
2017-02-07T06:32:41.673Z,196
2017-02-07T06:33:52.426Z,212
2017-02-07T06:35:03.173Z,228
2017-02-07T06:36:13.521Z,244
2017-02-07T06:37:23.874Z,256
2017-02-07T06:38:34.619Z,268
2017-02-07T06:39:45.370Z,276
2017-02-07T06:40:55.716Z,292
2017-02-07T06:42:06.064Z,308
2017-02-07T06:43:16.006Z,328
2017-02-07T06:44:26.348Z,352
2017-02-07T06:45:36.714Z,360
2017-02-07T06:46:47.073Z,360
2017-02-07T06:47:57.857Z,368
2017-02-07T06:49:08.217Z,376
2017-02-07T06:50:18.568Z,368
2017-02-07T06:51:29.330Z,380
2017-02-07T06:52:40.091Z,392
2017-02-07T06:53:50.834Z,404
2017-02-07T06:55:01.223Z,428
2017-02-07T06:56:11.180Z,452
2017-02-07T06:57:21.515Z,476
2017-02-07T06:58:32.290Z,476
2017-02-07T06:59:42.629Z,496
2017-02-07T07:00:52.969Z,520
2017-02-07T07:02:03.336Z,536
2017-02-07T07:03:14.075Z,540
2017-02-07T07:04:24.429Z,548
2017-02-07T07:05:34.792Z,584
2017-02-07T07:06:44.747Z,620
2017-02-07T07:07:55.524Z,640
2017-02-07T07:09:05.473Z,620
2017-02-07T07:10:15.462Z,600
2017-02-07T07:11:25.808Z,560
2017-02-07T07:12:36.160Z,556
2017-02-07T07:13:46.526Z,568
2017-02-07T07:14:56.880Z,560
2017-02-07T07:16:07.220Z,548
2017-02-07T07:17:17.605Z,564
2017-02-07T07:18:27.951Z,584
2017-02-07T07:19:37.914Z,588
2017-02-07T07:20:47.872Z,584
2017-02-07T07:21:57.827Z,596
2017-02-07T07:23:08.167Z,588
2017-02-07T07:24:18.945Z,584
2017-02-07T07:25:29.688Z,592
2017-02-07T07:26:40.428Z,628
2017-02-07T07:27:51.167Z,660
2017-02-07T07:29:01.519Z,692
2017-02-07T07:30:12.261Z,720
2017-02-07T07:31:22.625Z,748
2017-02-07T07:32:32.595Z,756
2017-02-07T07:33:43.332Z,780
2017-02-07T07:34:53.679Z,768
2017-02-07T07:36:04.015Z,808
2017-02-07T07:37:14.391Z,832
2017-02-07T07:38:24.738Z,868
2017-02-07T07:39:35.070Z,884
2017-02-07T07:40:45.447Z,928
2017-02-07T07:41:56.192Z,1000
2017-02-07T07:43:06.927Z,1040
2017-02-07T07:44:17.697Z,1144
2017-02-07T07:45:28.445Z,1180
2017-02-07T07:46:38.785Z,1196
2017-02-07T07:47:49.548Z,1256
2017-02-07T07:49:00.289Z,1368
2017-02-07T07:50:10.235Z,1448
2017-02-07T07:51:20.983Z,1528
2017-02-07T07:52:31.320Z,1692
2017-02-07T07:53:41.672Z,1760
2017-02-07T07:54:52.018Z,1784
2017-02-07T07:56:02.751Z,1804
2017-02-07T07:57:13.501Z,1836
2017-02-07T07:58:23.461Z,1844
2017-02-07T07:59:33.812Z,1816
2017-02-07T08:00:43.791Z,1856
2017-02-07T08:01:54.131Z,1900
2017-02-07T08:03:04.460Z,1988
2017-02-07T08:04:14.032Z,2116
2017-02-07T08:05:24.387Z,2248
2017-02-07T08:06:35.126Z,2472
2017-02-07T08:07:45.857Z,2536
2017-02-07T08:08:56.602Z,2668
2017-02-07T08:10:06.961Z,2716
2017-02-07T08:11:17.720Z,2888
2017-02-07T08:12:28.463Z,2752
2017-02-07T08:13:39.199Z,2728
2017-02-07T08:14:49.563Z,2832
2017-02-07T08:16:00.304Z,3024
2017-02-07T08:17:11.060Z,3144
2017-02-07T08:18:21.433Z,3208
2017-02-07T08:19:31.784Z,3296
2017-02-07T08:20:42.124Z,3396
2017-02-07T08:21:52.873Z,3484
2017-02-07T08:23:03.621Z,3592
2017-02-07T08:24:14.001Z,3648
2017-02-07T08:25:24.748Z,3704
2017-02-07T08:26:35.498Z,3696
2017-02-07T08:27:45.466Z,3736
2017-02-07T08:28:55.818Z,3640
2017-02-07T08:30:06.557Z,3372
2017-02-07T08:31:16.937Z,3332
2017-02-07T08:32:27.681Z,3488
2017-02-07T08:33:38.425Z,3316
2017-02-07T08:34:49.187Z,3020
2017-02-07T08:35:59.539Z,2908
2017-02-07T08:37:09.538Z,3084
2017-02-07T08:38:20.522Z,3032
2017-02-07T08:39:30.885Z,3132
2017-02-07T08:40:41.626Z,3080
2017-02-07T08:41:51.971Z,2980
2017-02-07T08:43:02.720Z,3100
2017-02-07T08:44:13.074Z,3276
2017-02-07T08:45:23.829Z,3388
2017-02-07T08:46:34.580Z,3428
2017-02-07T08:47:44.148Z,3628
2017-02-07T08:48:54.101Z,3508
2017-02-07T08:50:04.446Z,3584
2017-02-07T08:51:14.790Z,3476
2017-02-07T08:52:25.522Z,3412
2017-02-07T08:53:35.475Z,3360
2017-02-07T08:54:45.826Z,3396
2017-02-07T08:55:56.604Z,3456
2017-02-07T08:57:07.368Z,3636
2017-02-07T08:58:17.724Z,3716
2017-02-07T08:59:28.087Z,3900
2017-02-07T09:00:38.049Z,4028
2017-02-07T09:01:48.413Z,4288
2017-02-07T09:02:59.154Z,4236
2017-02-07T09:04:08.323Z,4232
2017-02-07T09:05:19.058Z,4324
2017-02-07T09:06:29.400Z,4860
2017-02-07T09:07:39.754Z,4148
2017-02-07T09:08:50.113Z,5056
2017-02-07T09:10:00.065Z,5056
2017-02-07T09:11:09.632Z,5360
2017-02-07T09:12:19.986Z,5248
2017-02-07T09:13:30.314Z,5980
2017-02-07T09:14:40.275Z,6160
2017-02-07T09:15:51.012Z,6256
2017-02-07T09:17:01.792Z,5884
2017-02-07T09:18:12.140Z,6572
2017-02-07T09:19:22.895Z,6068
2017-02-07T09:20:33.669Z,5488
2017-02-07T09:21:43.225Z,6332
2017-02-07T09:22:53.581Z,6456
2017-02-07T09:24:04.325Z,5868
2017-02-07T09:25:14.687Z,4680
2017-02-07T09:26:25.042Z,4876
2017-02-07T09:27:35.391Z,4972
2017-02-07T09:28:46.142Z,4920
2017-02-07T09:29:56.888Z,5420
2017-02-07T09:31:07.619Z,5080
2017-02-07T09:32:17.983Z,5688
2017-02-07T09:33:28.721Z,6772
2017-02-07T09:34:39.087Z,6768
2017-02-07T09:35:49.044Z,7188
2017-02-07T09:36:59.789Z,6952
2017-02-07T09:38:10.143Z,7272
2017-02-07T09:39:20.106Z,7608
2017-02-07T09:40:30.862Z,7452
2017-02-07T09:41:41.610Z,7544
2017-02-07T09:42:52.366Z,7652
2017-02-07T09:44:02.724Z,7472
2017-02-07T09:45:13.080Z,7676
2017-02-07T09:46:23.452Z,7684
2017-02-07T09:47:33.819Z,7844
2017-02-07T09:48:44.156Z,7852
2017-02-07T09:49:54.898Z,7888
2017-02-07T09:51:05.291Z,8088
2017-02-07T09:52:16.031Z,7964
2017-02-07T09:53:26.772Z,8192
2017-02-07T09:54:37.129Z,8128
2017-02-07T09:55:47.491Z,8412
2017-02-07T09:56:58.239Z,8380
2017-02-07T09:58:08.210Z,8292
2017-02-07T09:59:18.965Z,7248
2017-02-07T10:00:29.696Z,6924
2017-02-07T10:01:40.035Z,5612
2017-02-07T10:02:50.780Z,5688
2017-02-07T10:04:01.546Z,5824
2017-02-07T10:05:11.886Z,5588
2017-02-07T10:06:22.230Z,5556
2017-02-07T10:07:32.603Z,5564
2017-02-07T10:08:43.346Z,5680
2017-02-07T10:09:53.301Z,7280
2017-02-07T10:11:04.066Z,6884
2017-02-07T10:12:14.045Z,5148
2017-02-07T10:13:24.792Z,4584
2017-02-07T10:14:35.144Z,4556
2017-02-07T10:15:45.506Z,4744
2017-02-07T10:16:56.277Z,4164
2017-02-07T10:18:07.019Z,4032
2017-02-07T10:19:17.757Z,3980
2017-02-07T10:20:28.503Z,4524
2017-02-07T10:21:39.250Z,3876
2017-02-07T10:22:49.216Z,4444
2017-02-07T10:23:59.170Z,4572
2017-02-07T10:25:09.934Z,5276
2017-02-07T10:26:19.888Z,5744
2017-02-07T10:27:30.645Z,5872
2017-02-07T10:28:41.395Z,7364
2017-02-07T10:29:51.741Z,7772
2017-02-07T10:31:02.496Z,7936
2017-02-07T10:32:12.834Z,7876
2017-02-07T10:33:23.582Z,7752
2017-02-07T10:34:33.802Z,7836
2017-02-07T10:35:44.168Z,7904
2017-02-07T10:36:54.907Z,7716
2017-02-07T10:38:05.661Z,7736
2017-02-07T10:39:16.009Z,7500
2017-02-07T10:40:26.362Z,7544
2017-02-07T10:41:36.748Z,7572
2017-02-07T10:42:47.697Z,8012
2017-02-07T10:43:58.088Z,8100
2017-02-07T10:45:08.825Z,8240
2017-02-07T10:46:19.165Z,8040
2017-02-07T10:47:29.911Z,8440
2017-02-07T10:48:40.268Z,7700
2017-02-07T10:49:50.625Z,8004
2017-02-07T10:51:01.361Z,7892
2017-02-07T10:52:11.710Z,8384
2017-02-07T10:53:22.496Z,8252
2017-02-07T10:54:33.265Z,7468
2017-02-07T10:55:44.010Z,8304
2017-02-07T10:56:54.762Z,8032
2017-02-07T10:58:04.734Z,8180
2017-02-07T10:59:15.090Z,8320
2017-02-07T11:00:25.461Z,7884
2017-02-07T11:01:36.239Z,8116
2017-02-07T11:02:46.183Z,8192
2017-02-07T11:03:56.530Z,8308
2017-02-07T11:05:06.882Z,7796
2017-02-07T11:06:17.250Z,8228
2017-02-07T11:07:27.596Z,8416
2017-02-07T11:08:38.344Z,7840
2017-02-07T11:09:48.705Z,8368
2017-02-07T11:10:59.470Z,8220
2017-02-07T11:12:09.422Z,8300
2017-02-07T11:13:19.775Z,7300
2017-02-07T11:14:30.119Z,8284
2017-02-07T11:15:40.469Z,7560
2017-02-07T11:16:50.809Z,8140
2017-02-07T11:18:01.562Z,6492
2017-02-07T11:19:12.303Z,6356
2017-02-07T11:20:22.652Z,4740
2017-02-07T11:21:33.409Z,7908
2017-02-07T11:22:44.173Z,7720
2017-02-07T11:23:54.530Z,7736
2017-02-07T11:25:04.526Z,7980
2017-02-07T11:26:14.875Z,7564
2017-02-07T11:27:25.244Z,8244
2017-02-07T11:28:35.991Z,8156
2017-02-07T11:29:46.337Z,8200
2017-02-07T11:30:56.701Z,7992
2017-02-07T11:32:06.660Z,8072
2017-02-07T11:33:17.409Z,8084
2017-02-07T11:34:27.360Z,8312
2017-02-07T11:35:37.747Z,8328
2017-02-07T11:36:48.549Z,8328
2017-02-07T11:37:59.301Z,8288
2017-02-07T11:39:10.037Z,8408
2017-02-07T11:40:20.619Z,8296
2017-02-07T11:41:31.403Z,8276
2017-02-07T11:42:41.753Z,8372
2017-02-07T11:43:52.539Z,8184
2017-02-07T11:45:03.298Z,8232
2017-02-07T11:46:13.665Z,8404
2017-02-07T11:47:24.028Z,8284
2017-02-07T11:48:33.597Z,8448
2017-02-07T11:49:44.335Z,8288
2017-02-07T11:50:54.311Z,8500
2017-02-07T11:52:03.891Z,8600
2017-02-07T11:53:14.628Z,8636
2017-02-07T11:54:24.630Z,8740
2017-02-07T11:55:34.995Z,8692
2017-02-07T11:56:45.357Z,8480
2017-02-07T11:57:56.168Z,8520
2017-02-07T11:59:06.925Z,8156
2017-02-07T12:00:17.270Z,8524
2017-02-07T12:01:28.020Z,8256
2017-02-07T12:02:38.766Z,7864
2017-02-07T12:03:49.122Z,7860
2017-02-07T12:04:59.888Z,8388
2017-02-07T12:06:09.859Z,8364
2017-02-07T12:07:19.423Z,8220
2017-02-07T12:08:30.170Z,8056
2017-02-07T12:09:40.525Z,8196
2017-02-07T12:10:50.880Z,7892
2017-02-07T12:12:00.831Z,8156
2017-02-07T12:13:11.230Z,8184
2017-02-07T12:14:21.191Z,8056
2017-02-07T12:15:31.148Z,8056
2017-02-07T12:16:41.900Z,8184
2017-02-07T12:17:51.473Z,7744
2017-02-07T12:19:01.835Z,7788
2017-02-07T12:20:12.603Z,8040
2017-02-07T12:21:22.953Z,8296
2017-02-07T12:22:33.320Z,8396
2017-02-07T12:23:43.677Z,8252
2017-02-07T12:24:54.033Z,8076
2017-02-07T12:26:04.006Z,8044
2017-02-07T12:27:14.751Z,8440
2017-02-07T12:28:25.140Z,8472
2017-02-07T12:29:35.492Z,8596
2017-02-07T12:30:45.438Z,7788
2017-02-07T12:31:56.185Z,8504
2017-02-07T12:33:06.532Z,8604
2017-02-07T12:34:17.298Z,8028
2017-02-07T12:35:28.070Z,8008
2017-02-07T12:36:38.862Z,8576
2017-02-07T12:37:49.598Z,8100
2017-02-07T12:39:00.420Z,8284
2017-02-07T12:40:10.767Z,8256
2017-02-07T12:41:21.533Z,8400
2017-02-07T12:42:32.294Z,8096
2017-02-07T12:43:42.245Z,8532
2017-02-07T12:44:53.004Z,8488
2017-02-07T12:46:02.991Z,8516
2017-02-07T12:47:13.770Z,8372
2017-02-07T12:48:24.130Z,8136
2017-02-07T12:49:34.110Z,8132
2017-02-07T12:50:44.853Z,4868
2017-02-07T12:51:55.641Z,8208
2017-02-07T12:53:06.406Z,7696
2017-02-07T12:54:17.148Z,7736
2017-02-07T12:55:27.487Z,8080
2017-02-07T12:56:37.497Z,7880
2017-02-07T12:57:48.266Z,8416
2017-02-07T12:58:58.621Z,8068
2017-02-07T13:00:09.366Z,7608
2017-02-07T13:01:20.157Z,7504
2017-02-07T13:02:30.522Z,4812
2017-02-07T13:03:41.262Z,7288
2017-02-07T13:04:51.630Z,7440
2017-02-07T13:06:01.991Z,7544
2017-02-07T13:07:12.335Z,7672
2017-02-07T13:08:23.108Z,7152
2017-02-07T13:09:33.466Z,5652
2017-02-07T13:10:44.205Z,7360
2017-02-07T13:11:54.567Z,7288
2017-02-07T13:13:04.931Z,7088
2017-02-07T13:14:15.284Z,7188
2017-02-07T13:15:25.245Z,7132
2017-02-07T13:16:35.609Z,4172
2017-02-07T13:17:45.572Z,4984
2017-02-07T13:18:56.326Z,6808
2017-02-07T13:20:06.293Z,7104
2017-02-07T13:21:16.654Z,6900
2017-02-07T13:22:27.014Z,6420
2017-02-07T13:23:37.361Z,6632
2017-02-07T13:24:47.722Z,6700
2017-02-07T13:25:58.085Z,6528
2017-02-07T13:27:08.428Z,6672
2017-02-07T13:28:18.783Z,6428
2017-02-07T13:29:29.548Z,6448
2017-02-07T13:30:39.512Z,4764
2017-02-07T13:31:50.261Z,6596
2017-02-07T13:33:00.615Z,6460
2017-02-07T13:34:11.392Z,6588
2017-02-07T13:35:21.746Z,6668
2017-02-07T13:36:32.492Z,6304
2017-02-07T13:37:43.249Z,6184
2017-02-07T13:38:53.615Z,6000
2017-02-07T13:40:04.357Z,6020
2017-02-07T13:41:14.364Z,5756
2017-02-07T13:42:24.326Z,5944
2017-02-07T13:43:34.314Z,5700
2017-02-07T13:44:45.055Z,5768
2017-02-07T13:45:55.000Z,5852
2017-02-07T13:47:05.349Z,5868
2017-02-07T13:48:16.115Z,5484
2017-02-07T13:49:26.475Z,5700
2017-02-07T13:50:37.233Z,5824
2017-02-07T13:51:47.980Z,5464
2017-02-07T13:52:58.736Z,5484
2017-02-07T13:54:09.491Z,5612
2017-02-07T13:55:20.242Z,5620
2017-02-07T13:56:29.803Z,5488
2017-02-07T13:57:40.548Z,5384
2017-02-07T13:58:50.903Z,5368
2017-02-07T14:00:01.654Z,5300
2017-02-07T14:01:12.423Z,5248
2017-02-07T14:02:22.779Z,5312
2017-02-07T14:03:33.133Z,5324
2017-02-07T14:04:43.494Z,5208
2017-02-07T14:05:54.250Z,5064
2017-02-07T14:07:05.029Z,5184
2017-02-07T14:08:15.410Z,4936
2017-02-07T14:09:25.780Z,5012
2017-02-07T14:10:36.142Z,4856
2017-02-07T14:11:46.498Z,4876
2017-02-07T14:12:56.845Z,4864
2017-02-07T14:14:07.212Z,4832
2017-02-07T14:15:17.964Z,4596
2017-02-07T14:16:28.317Z,4668
2017-02-07T14:17:39.099Z,4564
2017-02-07T14:18:49.856Z,4448
2017-02-07T14:20:00.591Z,4368
2017-02-07T14:21:11.338Z,4324
2017-02-07T14:22:22.094Z,4244
2017-02-07T14:23:32.694Z,4012
2017-02-07T14:24:43.454Z,4192
2017-02-07T14:25:53.413Z,4084
2017-02-07T14:27:03.379Z,3992
2017-02-07T14:28:13.348Z,4024
2017-02-07T14:29:24.093Z,3780
2017-02-07T14:30:34.049Z,3800
2017-02-07T14:31:44.416Z,3724
2017-02-07T14:32:55.176Z,3604
2017-02-07T14:34:05.917Z,3684
2017-02-07T14:35:16.692Z,3676
2017-02-07T14:36:27.495Z,3504
2017-02-07T14:37:38.253Z,3496
2017-02-07T14:38:48.604Z,3392
2017-02-07T14:39:58.983Z,3336
2017-02-07T14:41:09.331Z,3340
2017-02-07T14:42:19.704Z,3332
2017-02-07T14:43:30.459Z,3204
2017-02-07T14:44:40.827Z,3076
2017-02-07T14:45:51.183Z,3084
2017-02-07T14:47:01.750Z,3012
2017-02-07T14:48:12.518Z,2956
2017-02-07T14:49:23.278Z,2936
2017-02-07T14:50:34.021Z,2900
2017-02-07T14:51:44.774Z,2840
2017-02-07T14:52:55.531Z,2760
2017-02-07T14:54:06.321Z,2704
2017-02-07T14:55:15.888Z,2664
2017-02-07T14:56:26.634Z,2616
2017-02-07T14:57:37.381Z,2580
2017-02-07T14:58:48.141Z,2496
2017-02-07T14:59:58.909Z,2380
2017-02-07T15:01:08.491Z,2280
2017-02-07T15:02:19.017Z,2188
2017-02-07T15:03:30.373Z,2116
2017-02-07T15:04:40.730Z,2092
2017-02-07T15:05:51.514Z,2020
2017-02-07T15:07:01.868Z,1944
2017-02-07T15:08:12.216Z,1884
2017-02-07T15:09:22.604Z,1848
2017-02-07T15:10:32.989Z,1776
2017-02-07T15:11:42.946Z,1708
2017-02-07T15:12:53.337Z,1636
2017-02-07T15:14:03.705Z,1568
2017-02-07T15:15:14.062Z,1476
2017-02-07T15:16:24.804Z,1284
2017-02-07T15:17:35.588Z,1208
2017-02-07T15:18:46.376Z,1304
2017-02-07T15:19:56.729Z,1304
2017-02-07T15:21:07.086Z,1232
2017-02-07T15:22:17.838Z,1208
2017-02-07T15:23:28.197Z,1184
2017-02-07T15:24:38.543Z,1156
2017-02-07T15:25:48.489Z,1120
2017-02-07T15:26:58.445Z,1096
2017-02-07T15:28:08.828Z,1048
2017-02-07T15:29:19.214Z,1004
2017-02-07T15:30:29.587Z,948
2017-02-07T15:31:39.927Z,904
2017-02-07T15:32:50.268Z,860
2017-02-07T15:34:00.625Z,816
2017-02-07T15:35:10.983Z,776
2017-02-07T15:36:21.753Z,744
2017-02-07T15:37:32.117Z,712
2017-02-07T15:38:42.478Z,684
2017-02-07T15:39:53.241Z,648
2017-02-07T15:41:03.989Z,612
2017-02-07T15:42:14.343Z,576
2017-02-07T15:43:25.154Z,548
2017-02-07T15:44:35.528Z,516
2017-02-07T15:45:45.881Z,492
2017-02-07T15:46:55.847Z,460
2017-02-07T15:48:06.605Z,436
2017-02-07T15:49:16.967Z,408
2017-02-07T15:50:27.711Z,380
2017-02-07T15:51:38.464Z,348
2017-02-07T15:52:49.272Z,320
2017-02-07T15:54:00.023Z,292
2017-02-07T15:55:10.389Z,276
2017-02-07T15:56:21.148Z,252
2017-02-07T15:57:31.111Z,228
2017-02-07T15:58:41.852Z,208
2017-02-07T15:59:51.802Z,192
2017-02-07T16:01:01.765Z,168
2017-02-07T16:02:12.141Z,152
2017-02-07T16:03:22.498Z,132
2017-02-07T16:04:32.865Z,120
2017-02-07T16:05:42.821Z,104
2017-02-07T16:06:53.628Z,88
2017-02-07T16:08:04.382Z,76
2017-02-07T16:09:15.143Z,64
2017-02-07T16:10:25.513Z,56
2017-02-07T16:11:36.261Z,48
2017-02-07T16:12:47.001Z,40
2017-02-07T16:13:57.749Z,36
2017-02-07T16:15:08.507Z,28
2017-02-07T16:16:18.871Z,20
2017-02-07T16:17:29.223Z,20
2017-02-07T16:18:39.978Z,16
2017-02-07T16:19:50.334Z,12
2017-02-07T16:21:00.710Z,12
2017-02-07T16:22:10.655Z,12
2017-02-07T16:23:21.003Z,8
2017-02-07T16:24:31.355Z,8
2017-02-07T16:25:41.320Z,4
2017-02-07T16:26:51.689Z,4
2017-02-07T16:28:02.044Z,4
2017-02-07T16:29:11.985Z,4
2017-02-07T16:30:22.347Z,0
2017-02-07T16:31:32.715Z,0
2017-02-07T16:32:43.068Z,4
2017-02-07T16:33:53.812Z,4
2017-02-07T16:35:04.160Z,4
2017-02-07T16:36:14.336Z,0
2017-02-07T16:37:24.691Z,0
2017-02-07T16:38:35.078Z,0
2017-02-07T16:39:45.896Z,0
2017-02-07T16:40:56.686Z,0
2017-02-07T16:42:07.054Z,0
2017-02-07T16:43:17.423Z,0
2017-02-07T16:44:28.208Z,0
2017-02-07T16:45:38.958Z,0
2017-02-07T16:46:49.343Z,0
2017-02-07T16:48:00.109Z,0
2017-02-07T16:49:10.878Z,0
2017-02-07T16:50:21.231Z,0